Latest Weather Observations for Casey*

IDT60801

Issued at 9:01 pm EDT Tuesday 9 February 2016 (issued every 30 minutes, with the page automatically refreshed every 10 minutes)

About weather observations | Map of weather stations | Latest weather observations for ANT | Other Formats
Station Details ID: 300017 Name: CASEY Lat: -66.28 Lon: 110.52 Height: 40.0 m
Data from the previous 72 hours. | See also: Recent months at Casey*
Date/Time
EDT
Temp
°C
App
Temp
°C
Dew
Point
Rel
Hum
%
Delta-T
°C
Wind Press
QNH
hPa
Press
MSL
hPa
Rain
since 9 am
mm
Dir
 
Spd
km/h
Gust
km/h
Spd
kts
Gust
kts
09/09:00pm -2.0 -15.2 -3.3 91 - ENE 57 67 31 36 978.1 - -
09/08:30pm -1.4 -13.4 -3.7 84 - ENE 50 61 27 33 978.3 - -
09/08:00pm -0.9 -13.3 -4.4 77 - ENE 52 61 28 33 978.1 978.4 -
09/07:30pm -0.5 -12.2 -4.4 75 - ENE 48 57 26 31 978.3 - -
09/07:00pm -1.2 -12.4 -3.7 83 - ENE 46 56 25 30 978.6 - -
09/06:30pm -1.1 -12.7 -3.6 83 - ENE 48 61 26 33 978.7 - -
09/06:03pm -0.5 -11.9 -5.1 71 - ENE 46 65 25 35 978.8 - -
09/06:00pm -0.4 -12.1 -4.5 74 - ENE 48 65 26 35 978.7 - -
09/05:30pm -0.2 -11.1 -4.6 72 - ENE 44 54 24 29 978.9 - -
09/05:00pm -0.1 -10.5 -4.7 71 - ENE 41 48 22 26 979.1 979.4 -
09/04:30pm 0.1 -9.1 -4.9 69 - NE 35 48 19 26 979.3 - -
09/04:00pm 0.1 -6.3 -4.5 71 - ENE 20 32 11 17 979.7 - -
09/03:30pm -0.9 -5.1 -3.9 80 - NNW 9 20 5 11 979.8 - -
09/03:00pm -1.5 -6.0 -3.5 86 - SSW 11 15 6 8 980.0 - -
09/02:30pm -1.3 -8.4 -4.0 82 - E 24 32 13 17 980.1 - -
09/02:00pm -0.9 -9.6 -5.1 73 - ENE 32 37 17 20 980.2 980.5 -
09/01:30pm -0.6 -7.8 -5.6 69 - E 24 43 13 23 980.3 - -
09/01:00pm -0.9 -5.1 -7.2 62 - SSW 7 19 4 10 980.6 - -
09/12:38pm -0.6 -9.0 -6.1 66 - ENE 30 39 16 21 980.5 - -
09/12:30pm -1.1 -10.1 -6.0 69 - E 33 46 18 25 980.5 - -
09/12:00pm -1.4 -10.8 -6.9 66 - E 35 44 19 24 980.7 - -
09/11:30am -1.4 -11.6 -6.9 66 - E 39 54 21 29 980.9 - -
09/11:00am -1.5 -10.5 -6.6 68 - E 33 43 18 23 981.0 981.3 -
09/10:30am -1.5 -10.6 -7.4 64 - E 33 41 18 22 981.3 - -
09/10:00am -2.3 -11.4 -7.0 70 - E 33 39 18 21 981.4 - -
09/09:30am -3.1 -12.2 -7.4 72 - E 33 41 18 22 981.7 - -
09/09:00am -3.5 -12.6 -7.6 73 - E 33 39 18 21 981.9 - -
09/08:30am -3.5 -13.0 -7.3 75 - E 35 39 19 21 982.1 - -
09/08:00am -3.0 -11.8 -6.6 76 - E 32 33 17 18 982.2 982.5 -
09/07:30am -2.8 -11.2 -6.4 76 - E 30 33 16 18 982.3 - -
09/07:00am -2.6 -10.6 -6.2 76 - E 28 35 15 19 982.3 - -
09/06:30am -2.4 -9.6 -5.5 79 - ENE 24 28 13 15 982.5 - -
09/06:00am -2.2 -8.1 -5.3 79 - ENE 17 19 9 10 982.7 - -
09/05:30am -2.5 -9.0 -5.6 79 - ENE 20 24 11 13 982.9 - -
09/05:00am -2.6 -9.4 -5.4 81 - ENE 22 28 12 15 983.0 983.3 -
09/04:30am -2.3 -8.7 -5.3 80 - ENE 20 24 11 13 983.3 - -
09/04:00am -2.6 -8.8 -5.1 83 - ENE 19 20 10 11 983.4 - -
09/03:30am -2.8 -6.6 -5.8 80 - SSW 6 11 3 6 983.6 - -
09/03:00am -3.3 -6.7 -5.5 85 - S 4 7 2 4 983.9 - -
09/02:30am -3.6 -8.0 -5.4 87 - S 9 11 5 6 984.2 - -
09/02:00am -3.8 -8.2 -5.9 85 - SSE 9 11 5 6 984.3 984.5 -
09/01:30am -3.8 -6.5 -5.8 86 - CALM 0 0 0 0 984.5 - -
09/01:00am -3.6 -6.2 -5.4 87 - CALM 0 0 0 0 984.6 - -
09/12:30am -3.3 -6.0 -5.8 83 - CALM 0 0 0 0 984.7 - -
09/12:00am -3.1 -5.8 -5.6 83 - CALM 0 0 0 0 984.9 - -
 
Date/Time
EDT
Temp
°C
App
Temp
°C
Dew
Point
Rel
Hum
%
Delta-T
°C
Wind Press
QNH
hPa
Press
MSL
hPa
Rain
since 9 am
mm
Dir
 
Spd
km/h
Gust
km/h
Spd
kts
Gust
kts
08/11:30pm -2.7 -5.4 -5.5 81 - CALM 0 0 0 0 985.1 - -
08/11:00pm -2.6 -5.3 -5.6 80 - CALM 0 0 0 0 985.2 985.4 -
08/10:30pm -2.5 -5.1 -5.3 81 - CALM 0 0 0 0 985.3 - -
08/10:00pm -2.6 -6.6 -5.2 82 - N 7 9 4 5 985.4 - -
08/09:30pm -2.5 -7.6 -5.5 80 - NNE 13 15 7 8 985.5 - -
08/09:00pm -2.3 -7.8 -5.6 78 - NNE 15 20 8 11 985.6 - -
08/08:30pm -2.2 -8.1 -6.0 75 - NE 17 22 9 12 985.8 - -
08/08:00pm -2.1 -8.4 -5.9 75 - NE 19 24 10 13 985.9 986.1 -
08/07:30pm -2.2 -9.1 -6.0 75 - NE 22 28 12 15 986.0 - -
08/07:00pm -2.2 -9.1 -5.7 77 - NE 22 28 12 15 986.0 - -
08/06:30pm -2.2 -8.7 -5.7 77 - NE 20 26 11 14 986.2 - -
08/06:00pm -2.4 -9.3 -5.9 77 - NNE 22 28 12 15 986.3 - -
08/05:30pm -2.4 -10.0 -5.5 79 - NNE 26 30 14 16 986.3 - -
08/05:00pm -2.6 -10.3 -6.2 76 - NNE 26 32 14 17 986.4 986.6 -
08/04:30pm -2.5 -10.1 -5.6 79 - NNE 26 33 14 18 986.3 - -
08/04:00pm -2.7 -10.7 -5.7 80 - NNE 28 35 15 19 986.4 - -
08/03:30pm -2.8 -11.5 -5.3 83 - NNE 32 35 17 19 986.4 - -
08/03:00pm -3.0 -11.7 -5.3 84 - NNE 32 37 17 20 986.3 - -
08/02:30pm -3.1 -11.4 -5.3 85 - NNE 30 37 16 20 986.3 - -
08/02:00pm -3.3 -11.7 -5.6 84 - NNE 30 37 16 20 986.3 986.5 -
08/01:30pm -3.4 -11.4 -5.4 86 - NNE 28 35 15 19 986.2 - -
08/01:00pm -3.5 -11.5 -5.6 85 - NNE 28 35 15 19 986.2 - -
08/12:30pm -3.6 -11.6 -5.6 86 - NNE 28 37 15 20 986.2 - -
08/12:00pm -3.6 -11.6 -5.4 87 - NNE 28 37 15 20 986.2 - -
08/11:30am -3.8 -11.0 -5.2 90 - NNE 24 32 13 17 986.2 - -
08/11:00am -3.9 -11.9 -5.3 90 - NNE 28 35 15 19 986.2 986.4 -
08/10:30am -4.0 -10.8 -5.4 90 - NNE 22 30 12 16 986.2 - -
08/10:00am -4.1 -10.6 -5.5 90 - NNE 20 28 11 15 986.2 - -
08/09:30am -4.0 -10.8 -5.5 89 - NNE 22 26 12 14 986.4 - -
08/09:00am -4.3 -10.8 -6.0 88 - NE 20 28 11 15 986.2 - -
08/08:30am -4.2 -11.1 -6.2 86 - NNE 22 28 12 15 986.3 - -
08/08:00am -4.2 -10.7 -6.3 85 - NE 20 28 11 15 986.2 986.4 -
08/07:30am -4.0 -10.9 -6.1 85 - NNE 22 32 12 17 986.0 - -
08/07:00am -4.0 -10.5 -6.1 85 - NNE 20 30 11 16 985.7 - -
08/06:30am -3.9 -10.4 -5.7 87 - NNE 20 28 11 15 985.7 - -
08/06:00am -3.1 -9.6 -5.9 81 - N 20 26 11 14 985.6 - -
08/05:30am -3.2 -9.7 -6.3 79 - NNW 20 28 11 15 985.5 - -
08/05:00am -3.1 -9.6 -6.0 80 - NNE 20 26 11 14 985.4 985.6 -
08/04:30am -2.8 -9.3 -5.8 80 - N 20 30 11 16 985.3 - -
08/04:00am -2.6 -8.8 -5.1 83 - N 19 24 10 13 985.2 - -
08/03:30am -2.5 -7.6 -5.6 79 - NW 13 17 7 9 984.9 - -
08/03:00am -2.4 -7.8 -4.6 85 - NW 15 17 8 9 984.9 - -
08/02:30am -2.3 -8.1 -4.2 87 - WNW 17 20 9 11 984.9 - -
08/02:00am -2.1 -7.5 -4.3 85 - NW 15 20 8 11 984.7 984.9 -
08/01:30am -1.9 -7.9 -3.3 90 - NNE 19 26 10 14 984.7 - -
08/01:00am -2.0 -8.2 -3.4 90 - N 20 26 11 14 984.8 - -
08/12:30am -2.2 -9.5 -3.2 93 - NNE 26 33 14 18 984.5 - -
08/12:00am -1.8 -9.6 -3.4 89 - NNE 28 35 15 19 984.3 - -
 
Date/Time
EDT
Temp
°C
App
Temp
°C
Dew
Point
Rel
Hum
%
Delta-T
°C
Wind Press
QNH
hPa
Press
MSL
hPa
Rain
since 9 am
mm
Dir
 
Spd
km/h
Gust
km/h
Spd
kts
Gust
kts
07/11:30pm -1.9 -10.4 -3.0 92 - NNE 32 39 17 21 984.4 - -
07/11:00pm -1.6 -8.9 -3.2 89 - NNE 26 33 14 18 984.2 984.4 -
07/10:30pm -1.5 -9.2 -3.2 88 - NNE 28 33 15 18 984.1 - -
07/10:00pm -1.4 -8.7 -2.7 91 - NNE 26 33 14 18 984.0 - -
07/09:30pm -1.6 -5.6 -2.6 93 - N 9 13 5 7 984.1 - -
07/09:00pm -1.3 -4.8 -2.6 91 - N 6 11 3 6 983.9 - -
07/08:30pm -1.2 -4.7 -2.6 90 - WNW 6 9 3 5 983.8 - -
07/08:00pm -1.2 -4.7 -2.9 88 - NW 6 9 3 5 983.6 983.9 -
07/07:30pm -1.2 -4.9 -2.8 89 - N 7 9 4 5 983.4 - -
07/07:00pm -0.8 -4.5 -3.0 85 - NNW 7 9 4 5 983.3 - -
07/06:30pm -0.7 -4.5 -3.5 81 - N 7 9 4 5 983.2 - -
07/06:00pm -0.8 -4.6 -3.5 82 - N 7 9 4 5 983.1 - -
07/05:30pm -0.6 -4.7 -3.3 82 - NW 9 11 5 6 982.9 - -
07/05:00pm -0.4 -4.2 -3.9 77 - WNW 7 11 4 6 982.9 983.2 -
07/04:30pm -0.7 -4.6 -5.1 72 - NW 7 9 4 5 982.8 - -
07/04:00pm -0.6 -4.5 -4.8 73 - NW 7 9 4 5 982.9 - -
07/03:30pm -0.7 -4.5 -5.5 70 - N 6 7 3 4 982.9 - -
07/03:00pm -1.2 -5.1 -6.1 69 - N 6 7 3 4 982.8 - -
07/02:30pm -1.1 -4.9 -5.9 70 - N 6 7 3 4 982.8 - -
07/02:00pm -1.4 -4.9 -6.3 69 - N 4 7 2 4 982.8 983.1 -
07/01:30pm -1.8 -5.8 -6.0 73 - NNW 7 9 4 5 982.9 - -
07/01:00pm -1.6 -5.6 -5.6 74 - N 7 9 4 5 982.9 - -
07/12:30pm -1.8 -6.2 -5.6 75 - N 9 13 5 7 982.8 - -
07/12:00pm -1.8 -6.6 -6.0 73 - N 11 13 6 7 982.9 - -
07/11:30am -1.8 -5.8 -5.8 74 - N 7 11 4 6 982.7 - -
07/11:00am -1.7 -6.1 -5.9 73 - NNE 9 11 5 6 982.7 983.0 -
07/10:30am -1.6 -5.6 -5.4 75 - SE 7 7 4 4 982.7 - -
07/10:00am -1.9 -6.2 -5.2 78 - SE 9 9 5 5 982.7 - -
07/09:30am -2.0 -6.3 -5.0 80 - SSE 9 11 5 6 982.6 - -
07/09:00am -2.3 -7.4 -4.9 82 - SE 13 13 7 7 982.7 - -
07/08:30am -2.6 -7.7 -4.9 84 - SE 13 13 7 7 982.6 - -
07/08:00am -2.7 -7.8 -5.0 84 - SE 13 13 7 7 982.7 983.0 -
07/07:30am -2.6 -7.7 -4.8 85 - SSE 13 15 7 8 982.6 - -
07/07:00am -2.4 -7.8 -4.6 85 - SSE 15 17 8 9 982.6 - -
07/06:30am -2.5 -8.3 -4.8 84 - SSE 17 19 9 10 982.5 - -
07/06:00am -2.5 -8.7 -4.8 84 - SSE 19 20 10 11 982.6 - -
07/05:30am -2.8 -8.7 -5.3 83 - SSE 17 19 9 10 982.7 - -
07/05:00am -2.7 -8.6 -5.2 83 - SE 17 17 9 9 982.8 983.1 -
07/04:30am -2.7 -7.4 -5.3 82 - ESE 11 15 6 8 983.1 - -
07/04:00am -2.6 -7.7 -5.4 81 - ESE 13 15 7 8 983.2 - -
07/03:30am -2.3 -7.0 -5.4 79 - E 11 13 6 7 983.4 - -
07/03:00am -2.2 -6.9 -5.5 78 - ESE 11 13 6 7 983.4 - -
07/02:30am -2.3 -7.4 -5.3 80 - SE 13 15 7 8 983.4 - -
07/02:00am -2.0 -7.1 -5.0 80 - SSE 13 15 7 8 983.8 984.0 -
07/01:30am -1.7 -7.9 -4.7 80 - S 19 20 10 11 983.9 - -
07/01:00am -1.7 -5.6 -5.0 78 - SSE 7 11 4 6 984.2 - -
07/12:30am -1.9 -6.2 -4.6 82 - S 9 11 5 6 984.3 - -

Other Formats:

Comma delimited format used in spreadsheet applications
http://www.bom.gov.au/fwo/IDT60803/IDT60803.89611.axf

JavaScript Object Notation format (JSON) in row-major order
http://www.bom.gov.au/fwo/IDT60803/IDT60803.89611.json